Barksdale Air Force Base
KBAD : rendu visible

Aérodrome :











RETROUVEZ-NOUS SUR...

 
LOGIN :

S'inscrire | Disclaimer

   EN    FR    IT 

 









Légende :    VFR   VFR Marginal   IFR   IFR Intensif   IFR Très Intensif
Visi : 
Plafond : 
>= 8 km
>= 3000ft
5 à 8 km
1000 à 3000 ft
1500m à 5 km
500 à 1000 ft
800 à 1500m
200 à 500 ft
< 800m
< 200 ft
Symboles :   Orages  Brouillard  Fortes neiges  Fortes précipitations  Vent > 20 kt






- Altitude de l'aérodrome : 166 ft


KBAD - Barksdale Air Force Base

DERNIER METAR :
  • 271319Z 00000KT 2 1/4SM BR OVC002 18/18 A2991 RMK AO2A SLP130

METARs EXPIRÉS :
  • 271304Z 12003KT 1 1/4SM BR OVC001 18/18 A2990 RMK AO2A SLP127
  • 271256Z 13004KT 3/4SM R15/1800V4000FT BR VV001 17/17 A2990 RMK AO2A SLP127 T01720172
  • 271156Z AUTO 00000KT 1/4SM R15/2000V2600FT FG VV002 17/17 A2990 RMK AO2 RAB31E41 CIG 001 RWY33 SLP127 P0000 60000 70013 T01700170 10171 20161 52017
  • 271141Z AUTO 12003KT 3/8SM R15/2600V3500FT FG VV002 17/17 A2990 RMK AO2 RAB31E41 CIG 001 RWY33 SLP127
  • 271131Z AUTO 00000KT 1/4SM R15/2600V4500FT -RA FG VV002 17/17 A2990 RMK AO2 RAB31 CIG 001 RWY33 SLP127
  • 271056Z AUTO 16003KT 3/8SM R15/2000V2800FT FG VV001 17/17 A2988 RMK AO2 SLP120 T01680168
  • 271036Z AUTO 15004KT 3/8SM R15/1800V2400FT FG VV001 17/17 A2987 RMK AO2 SLP117

TAF AMD TAF KBAD
Valide du 27 à 12h jusqu'au 28 à 16h UTC


271254Z 2712/2816 18005KT 0800 FG VV002 QNH2985INS
BECMG 2713/2714 27005KT 9999 NSW SCT020 QNH2985INS
BECMG 2721/2722 27010G15KT 9999 -SHRA VCTS BKN040CB QNH2983INS
TEMPO 2802/2806 27020G25KT 6000 TSRA OVC010CB
BECMG 2806/2807 00000KT 9999 NSW OVC020 QNH2995INS TX25/2721Z TN16/2712Z
FIR KZFW / Amérique du Nord



MET'MAP, la Météo Aéronautique d'un coup d'oeil ! - Copyright ORBIFLY Décembre 2007 - Disclaimer

ORBIFLY MET'MAP TEAM :

Programmation & Développement : Alexandra Zaïnal
Sur une idée originale de : Baudouin d'Aumeries
Assistance à la programmation : Marc-Olivier Méhu
Soutien technique & logistique : Manuel Goepfert

Contact : metmap@orbifly.com




SOURCES & CREDITS :

   NOAA       Earth
Advisory